createdAt,value
2016-12-14T00:00:26.148Z,1008.5
2016-12-14T00:01:36.478Z,1008.48
2016-12-14T00:02:46.209Z,1008.49
2016-12-14T00:03:56.232Z,1008.49
2016-12-14T00:05:06.238Z,1008.46
2016-12-14T00:06:16.262Z,1008.48
2016-12-14T00:07:26.621Z,1008.44
2016-12-14T00:08:36.634Z,1008.39
2016-12-14T00:09:46.701Z,1008.42
2016-12-14T00:10:57.027Z,1008.44
2016-12-14T00:12:07.028Z,1008.45
2016-12-14T00:13:17.050Z,1008.42
2016-12-14T00:14:27.378Z,1008.41
2016-12-14T00:15:37.074Z,1008.4
2016-12-14T00:16:47.081Z,1008.41
2016-12-14T00:17:57.454Z,1008.41
2016-12-14T00:19:07.464Z,1008.41
2016-12-14T00:20:17.472Z,1008.4
2016-12-14T00:21:27.798Z,1008.4
2016-12-14T00:22:38.120Z,1008.43
2016-12-14T00:23:48.441Z,1008.45
2016-12-14T00:24:58.158Z,1008.46
2016-12-14T00:26:08.480Z,1008.43
2016-12-14T00:27:18.480Z,1008.44
2016-12-14T00:28:28.487Z,1008.47
2016-12-14T00:29:38.499Z,1008.49
2016-12-14T00:30:48.831Z,1008.45
2016-12-14T00:31:59.164Z,1008.43
2016-12-14T00:33:09.485Z,1008.39
2016-12-14T00:34:19.500Z,1008.38
2016-12-14T00:35:29.523Z,1008.37
2016-12-14T00:36:39.240Z,1008.37
2016-12-14T00:37:49.252Z,1008.39
2016-12-14T00:38:59.574Z,1008.43
2016-12-14T00:40:09.923Z,1008.39
2016-12-14T00:41:19.927Z,1008.4
2016-12-14T00:42:29.938Z,1008.41
2016-12-14T00:43:39.945Z,1008.4
2016-12-14T00:44:50.313Z,1008.41
2016-12-14T00:46:00.332Z,1008.43
2016-12-14T00:47:10.664Z,1008.4
2016-12-14T00:48:20.971Z,1008.41
2016-12-14T00:49:30.407Z,1008.41
2016-12-14T00:50:40.424Z,1008.38
2016-12-14T00:51:50.476Z,1008.36
2016-12-14T00:53:00.823Z,1008.34
2016-12-14T00:54:11.147Z,1008.32
2016-12-14T00:55:20.539Z,1008.34
2016-12-14T00:56:30.580Z,1008.33
2016-12-14T00:57:40.924Z,1008.31
2016-12-14T00:58:50.932Z,1008.31
2016-12-14T01:00:00.630Z,1008.29
2016-12-14T01:01:10.659Z,1008.3
2016-12-14T01:02:20.997Z,1008.3
2016-12-14T01:03:31.008Z,1008.32
2016-12-14T01:04:41.325Z,1008.3
2016-12-14T01:05:51.661Z,1008.3
2016-12-14T01:07:01.383Z,1008.35
2016-12-14T01:08:11.711Z,1008.33
2016-12-14T01:09:21.752Z,1008.35
2016-12-14T01:10:31.824Z,1008.31
2016-12-14T01:11:41.880Z,1008.31
2016-12-14T01:12:51.584Z,1008.22
2016-12-14T01:14:01.594Z,1008.23
2016-12-14T01:15:11.906Z,1008.21
2016-12-14T01:16:21.609Z,1008.18
2016-12-14T01:17:31.965Z,1008.18
2016-12-14T01:18:41.998Z,1008.2
2016-12-14T01:19:52.331Z,1008.15
2016-12-14T01:21:02.663Z,1008.14
2016-12-14T01:22:12.677Z,1008.16
2016-12-14T01:23:22.679Z,1008.12
2016-12-14T01:24:33.008Z,1008.14
2016-12-14T01:25:43.020Z,1008.09
2016-12-14T01:26:53.346Z,1008.07
2016-12-14T01:28:03.366Z,1008.06
2016-12-14T01:29:13.420Z,1008.04
2016-12-14T01:30:23.481Z,1008.02
2016-12-14T01:31:33.499Z,1008.02
2016-12-14T01:32:43.518Z,1008
2016-12-14T01:33:53.551Z,1007.98
2016-12-14T01:35:03.888Z,1007.97
2016-12-14T01:36:13.591Z,1007.92
2016-12-14T01:37:23.919Z,1007.95
2016-12-14T01:38:34.241Z,1007.89
2016-12-14T01:39:43.625Z,1007.86
2016-12-14T01:40:53.037Z,1007.88
2016-12-14T01:42:03.095Z,1007.89
2016-12-14T01:43:12.796Z,1007.82
2016-12-14T01:44:23.126Z,1007.81
2016-12-14T01:45:32.828Z,1007.8
2016-12-14T01:46:42.850Z,1007.79
2016-12-14T01:47:53.182Z,1007.81
2016-12-14T01:49:03.513Z,1007.75
2016-12-14T01:50:13.547Z,1007.75
2016-12-14T01:51:23.851Z,1007.7
2016-12-14T01:52:33.859Z,1007.69
2016-12-14T01:53:44.185Z,1007.71
2016-12-14T01:54:54.196Z,1007.66
2016-12-14T01:56:03.895Z,1007.72
2016-12-14T01:57:13.597Z,1007.68
2016-12-14T01:58:23.931Z,1007.72
2016-12-14T01:59:33.334Z,1007.68
2016-12-14T02:00:43.351Z,1007.68
2016-12-14T02:01:53.398Z,1007.64
2016-12-14T02:03:03.723Z,1007.64
2016-12-14T02:04:13.725Z,1007.57
2016-12-14T02:05:23.753Z,1007.58
2016-12-14T02:06:33.764Z,1007.59
2016-12-14T02:07:43.781Z,1007.57
2016-12-14T02:08:54.111Z,1007.56
2016-12-14T02:10:03.818Z,1007.55
2016-12-14T02:11:13.536Z,1007.59
2016-12-14T02:12:23.941Z,1007.56
2016-12-14T02:13:33.643Z,1007.57
2016-12-14T02:14:43.973Z,1007.51
2016-12-14T02:15:53.691Z,1007.51
2016-12-14T02:17:04.023Z,1007.47
2016-12-14T02:18:14.034Z,1007.48
2016-12-14T02:19:24.362Z,1007.46
2016-12-14T02:20:34.069Z,1007.46
2016-12-14T02:21:44.385Z,1007.44
2016-12-14T02:22:54.383Z,1007.4
2016-12-14T02:24:03.783Z,1007.4
2016-12-14T02:25:13.804Z,1007.4
2016-12-14T02:26:24.137Z,1007.37
2016-12-14T02:27:34.153Z,1007.4
2016-12-14T02:28:44.509Z,1007.41
2016-12-14T02:29:54.526Z,1007.4
2016-12-14T02:31:04.854Z,1007.41
2016-12-14T02:32:15.166Z,1007.41
2016-12-14T02:33:25.496Z,1007.4
2016-12-14T02:34:35.229Z,1007.36
2016-12-14T02:35:45.551Z,1007.32
2016-12-14T02:36:55.868Z,1007.33
2016-12-14T02:38:05.570Z,1007.33
2016-12-14T02:39:15.265Z,1007.3
2016-12-14T02:40:24.969Z,1007.32
2016-12-14T02:41:35.302Z,1007.3
2016-12-14T02:42:45.650Z,1007.34
2016-12-14T02:43:55.381Z,1007.34
2016-12-14T02:45:05.132Z,1007.38
2016-12-14T02:46:15.460Z,1007.35
2016-12-14T02:47:25.790Z,1007.33
2016-12-14T02:48:35.845Z,1007.33
2016-12-14T02:49:46.175Z,1007.38
2016-12-14T02:50:56.492Z,1007.33
2016-12-14T02:52:06.519Z,1007.32
2016-12-14T02:53:16.839Z,1007.28
2016-12-14T02:54:26.541Z,1007.27
2016-12-14T02:55:36.548Z,1007.23
2016-12-14T02:56:46.869Z,1007.23
2016-12-14T02:57:56.903Z,1007.23
2016-12-14T02:59:06.899Z,1007.23
2016-12-14T03:00:16.921Z,1007.21
2016-12-14T03:32:40.819Z,1006.8
2016-12-14T03:33:51.124Z,1006.81
2016-12-14T03:35:00.824Z,1006.81
2016-12-14T03:36:10.841Z,1006.82
2016-12-14T03:37:20.853Z,1006.87
2016-12-14T03:38:31.210Z,1006.82
2016-12-14T03:39:41.531Z,1006.86
2016-12-14T03:40:51.231Z,1006.85
2016-12-14T03:42:01.547Z,1006.85
2016-12-14T03:43:11.902Z,1006.84
2016-12-14T03:44:21.910Z,1006.82
2016-12-14T03:45:32.257Z,1006.81
2016-12-14T03:46:42.262Z,1006.83
2016-12-14T03:47:52.301Z,1006.84
2016-12-14T03:49:02.635Z,1006.91
2016-12-14T03:50:12.962Z,1006.9
2016-12-14T03:51:23.289Z,1006.88
2016-12-14T03:52:33.346Z,1006.87
2016-12-14T03:53:43.674Z,1006.88
2016-12-14T03:54:54.000Z,1006.89
2016-12-14T03:56:03.726Z,1006.9
2016-12-14T03:57:13.763Z,1006.88
2016-12-14T03:58:23.774Z,1006.93
2016-12-14T03:59:34.091Z,1006.89
2016-12-14T04:00:44.417Z,1006.89
2016-12-14T04:01:53.806Z,1006.87
2016-12-14T04:03:03.833Z,1006.86
2016-12-14T04:04:13.547Z,1006.83
2016-12-14T04:05:23.249Z,1006.8
2016-12-14T04:06:33.260Z,1006.82
2016-12-14T04:07:43.612Z,1006.83
2016-12-14T04:08:53.640Z,1006.84
2016-12-14T04:10:03.955Z,1006.83
2016-12-14T04:11:14.282Z,1006.82
2016-12-14T04:12:24.601Z,1006.88
2016-12-14T04:13:34.307Z,1006.83
2016-12-14T04:14:44.643Z,1006.84
2016-12-14T04:15:54.985Z,1006.89
2016-12-14T04:17:05.317Z,1006.86
2016-12-14T04:18:15.013Z,1006.88
2016-12-14T04:19:25.039Z,1006.9
2016-12-14T04:20:34.732Z,1006.9
2016-12-14T04:21:44.754Z,1006.84
2016-12-14T04:22:55.095Z,1006.81
2016-12-14T04:24:05.422Z,1006.78
2016-12-14T04:25:15.457Z,1006.76
2016-12-14T04:26:25.469Z,1006.78
2016-12-14T04:27:35.496Z,1006.74
2016-12-14T04:28:45.809Z,1006.76
2016-12-14T04:29:56.155Z,1006.74
2016-12-14T04:31:06.172Z,1006.71
2016-12-14T04:32:16.493Z,1006.7
2016-12-14T04:33:26.811Z,1006.67
2016-12-14T04:34:37.143Z,1006.66
2016-12-14T04:35:47.153Z,1006.67
2016-12-14T04:36:56.884Z,1006.69
2016-12-14T04:38:07.224Z,1006.72
2016-12-14T04:39:17.551Z,1006.77
2016-12-14T04:40:27.570Z,1006.68
2016-12-14T04:41:37.934Z,1006.73
2016-12-14T04:42:48.266Z,1006.68
2016-12-14T04:43:58.587Z,1006.66
2016-12-14T04:45:08.904Z,1006.6
2016-12-14T04:46:18.933Z,1006.58
2016-12-14T04:47:28.937Z,1006.58
2016-12-14T04:48:38.946Z,1006.56
2016-12-14T04:49:48.979Z,1006.55
2016-12-14T04:50:58.997Z,1006.55
2016-12-14T04:52:08.702Z,1006.54
2016-12-14T04:53:18.739Z,1006.57
2016-12-14T04:54:29.062Z,1006.57
2016-12-14T04:55:39.384Z,1006.57
2016-12-14T04:56:49.087Z,1006.57
2016-12-14T04:57:59.116Z,1006.55
2016-12-14T04:59:09.157Z,1006.56
2016-12-14T05:00:19.169Z,1006.57
2016-12-14T05:01:29.168Z,1006.56
2016-12-14T05:02:39.499Z,1006.58
2016-12-14T05:03:49.509Z,1006.55
2016-12-14T05:04:59.266Z,1006.53
2016-12-14T05:06:09.588Z,1006.49
2016-12-14T05:07:19.936Z,1006.48
2016-12-14T05:08:30.294Z,1006.49
2016-12-14T05:09:40.013Z,1006.49
2016-12-14T05:10:49.715Z,1006.5
2016-12-14T05:11:59.731Z,1006.5
2016-12-14T05:13:09.748Z,1006.54
2016-12-14T05:14:20.086Z,1006.53
2016-12-14T05:15:30.093Z,1006.57
2016-12-14T05:16:40.116Z,1006.57
2016-12-14T05:17:50.446Z,1006.56
2016-12-14T05:19:00.769Z,1006.55
2016-12-14T05:20:10.789Z,1006.51
2016-12-14T05:21:21.111Z,1006.51
2016-12-14T05:22:31.451Z,1006.53
2016-12-14T05:23:41.761Z,1006.51
2016-12-14T05:24:52.087Z,1006.5
2016-12-14T05:26:02.409Z,1006.55
2016-12-14T05:27:12.414Z,1006.54
2016-12-14T05:28:22.433Z,1006.56
2016-12-14T05:29:32.448Z,1006.54
2016-12-14T05:30:43.000Z,1006.48
2016-12-14T05:31:53.026Z,1006.46
2016-12-14T05:33:02.764Z,1006.47
2016-12-14T05:34:13.088Z,1006.46
2016-12-14T05:35:22.801Z,1006.46
2016-12-14T05:36:32.815Z,1006.43
2016-12-14T05:37:43.150Z,1006.43
2016-12-14T05:38:53.481Z,1006.35
2016-12-14T05:40:03.798Z,1006.39
2016-12-14T05:41:14.133Z,1006.36
2016-12-14T05:42:24.471Z,1006.42
2016-12-14T05:43:34.493Z,1006.46
2016-12-14T05:44:44.816Z,1006.44
2016-12-14T05:45:54.828Z,1006.4
2016-12-14T05:47:04.530Z,1006.38
2016-12-14T05:48:14.860Z,1006.39
2016-12-14T05:49:25.188Z,1006.38
2016-12-14T05:50:34.896Z,1006.36
2016-12-14T05:51:45.235Z,1006.4
2016-12-14T05:52:55.248Z,1006.38
2016-12-14T05:54:05.253Z,1006.38
2016-12-14T05:55:15.273Z,1006.36
2016-12-14T05:56:25.308Z,1006.34
2016-12-14T05:57:35.756Z,1006.29
2016-12-14T05:58:45.800Z,1006.32
2016-12-14T05:59:56.247Z,1006.33
2016-12-14T06:01:06.579Z,1006.29
2016-12-14T06:02:15.975Z,1006.25
2016-12-14T06:03:26.302Z,1006.28
2016-12-14T06:04:36.323Z,1006.23
2016-12-14T06:05:46.338Z,1006.26
2016-12-14T06:06:56.677Z,1006.28
2016-12-14T06:08:06.380Z,1006.18
2016-12-14T06:09:16.702Z,1006.29
2016-12-14T06:10:26.708Z,1006.29
2016-12-14T06:11:36.759Z,1006.24
2016-12-14T06:12:46.147Z,1006.26
2016-12-14T06:13:56.482Z,1006.23
2016-12-14T06:15:06.804Z,1006.22
2016-12-14T06:16:17.136Z,1006.25
2016-12-14T06:17:27.153Z,1006.29
2016-12-14T06:18:37.490Z,1006.29
2016-12-14T06:19:47.501Z,1006.3
2016-12-14T06:20:57.509Z,1006.32
2016-12-14T06:22:07.530Z,1006.24
2016-12-14T06:23:17.527Z,1006.26
2016-12-14T06:24:27.535Z,1006.29
2016-12-14T06:25:37.553Z,1006.26
2016-12-14T06:26:47.576Z,1006.25
2016-12-14T06:27:57.900Z,1006.15
2016-12-14T06:29:08.229Z,1006.2
2016-12-14T06:30:17.933Z,1006.22
2016-12-14T06:31:27.644Z,1006.23
2016-12-14T06:32:37.970Z,1006.22
2016-12-14T06:33:48.328Z,1006.22
2016-12-14T06:34:58.027Z,1006.24
2016-12-14T06:36:08.349Z,1006.28
2016-12-14T06:37:18.377Z,1006.25
2016-12-14T06:38:28.695Z,1006.29
2016-12-14T06:39:39.030Z,1006.32
2016-12-14T06:40:49.348Z,1006.3
2016-12-14T06:41:59.052Z,1006.29
2016-12-14T06:43:09.070Z,1006.26
2016-12-14T06:44:19.077Z,1006.22
2016-12-14T06:45:29.399Z,1006.26
2016-12-14T06:46:39.721Z,1006.25
2016-12-14T06:47:49.736Z,1006.19
2016-12-14T06:48:59.739Z,1006.15
2016-12-14T06:50:09.782Z,1006.04
2016-12-14T06:51:20.102Z,1005.94
2016-12-14T06:52:30.442Z,1005.9
2016-12-14T06:53:40.145Z,1005.89
2016-12-14T06:54:49.857Z,1005.99
2016-12-14T06:55:59.873Z,1006.08
2016-12-14T06:57:10.202Z,1006.11
2016-12-14T06:58:19.903Z,1006.13
2016-12-14T06:59:30.273Z,1006.11
2016-12-14T07:00:40.597Z,1006.11
2016-12-14T07:01:50.637Z,1006.19
2016-12-14T07:03:00.959Z,1006.22
2016-12-14T07:04:11.200Z,1006.22
2016-12-14T07:05:20.932Z,1006.24
2016-12-14T07:06:30.953Z,1006.19
2016-12-14T07:07:41.267Z,1006.24
2016-12-14T07:08:51.590Z,1006.2
2016-12-14T07:10:01.299Z,1006.19
2016-12-14T07:11:11.621Z,1006.17
2016-12-14T07:12:21.318Z,1006.16
2016-12-14T07:13:31.645Z,1006.16
2016-12-14T07:14:41.977Z,1006.16
2016-12-14T07:15:51.993Z,1006.15
2016-12-14T07:17:02.011Z,1006.08
2016-12-14T07:18:11.743Z,1006.15
2016-12-14T07:19:22.094Z,1006.15
2016-12-14T07:20:31.476Z,1006.21
2016-12-14T07:21:41.791Z,1006.19
2016-12-14T07:22:51.801Z,1006.26
2016-12-14T07:24:02.130Z,1006.28
2016-12-14T07:25:12.457Z,1006.21
2016-12-14T07:26:22.803Z,1006.24
2016-12-14T07:27:33.160Z,1006.22
2016-12-14T07:28:43.526Z,1006.24
2016-12-14T07:29:53.837Z,1006.23
2016-12-14T07:31:03.221Z,1006.23
2016-12-14T07:32:12.927Z,1006.27
2016-12-14T07:33:22.948Z,1006.28
2016-12-14T07:34:33.286Z,1006.32
2016-12-14T07:35:43.297Z,1006.29
2016-12-14T07:36:53.310Z,1006.26
2016-12-14T07:38:03.012Z,1006.21
2016-12-14T07:39:13.341Z,1006.18
2016-12-14T07:40:23.668Z,1006.2
2016-12-14T07:41:33.686Z,1006.21
2016-12-14T07:42:43.733Z,1006.19
2016-12-14T07:43:53.748Z,1006.14
2016-12-14T07:45:03.769Z,1006.19
2016-12-14T07:46:13.787Z,1006.17
2016-12-14T07:47:24.134Z,1006.13
2016-12-14T07:48:33.842Z,1006.15
2016-12-14T07:49:44.183Z,1006.18
2016-12-14T07:50:54.508Z,1006.17
2016-12-14T07:52:04.215Z,1006.12
2016-12-14T07:53:14.569Z,1006.19
2016-12-14T07:54:24.284Z,1006.14
2016-12-14T07:55:34.610Z,1006.17
2016-12-14T07:56:44.627Z,1006.16
2016-12-14T07:57:54.954Z,1006.15
2016-12-14T07:59:04.966Z,1006.16
2016-12-14T08:00:14.663Z,1006.14
2016-12-14T08:01:24.690Z,1006.17
2016-12-14T08:02:34.721Z,1006.14
2016-12-14T08:03:44.747Z,1006.2
2016-12-14T08:04:54.758Z,1006.2
2016-12-14T08:06:05.093Z,1006.19
2016-12-14T08:07:15.107Z,1006.22
2016-12-14T08:08:25.356Z,1006.28
2016-12-14T08:09:35.375Z,1006.26
2016-12-14T08:10:45.712Z,1006.25
2016-12-14T08:11:55.749Z,1006.26
2016-12-14T08:13:06.082Z,1006.26
2016-12-14T08:14:15.822Z,1006.31
2016-12-14T08:15:26.156Z,1006.28
2016-12-14T08:16:36.205Z,1006.27
2016-12-14T08:17:46.231Z,1006.26
2016-12-14T08:18:56.549Z,1006.25
2016-12-14T08:20:06.242Z,1006.22
2016-12-14T08:21:16.272Z,1006.22
2016-12-14T08:22:26.320Z,1006.17
2016-12-14T08:23:36.652Z,1006.22
2016-12-14T08:24:47.006Z,1006.2
2016-12-14T08:25:57.329Z,1006.19
2016-12-14T08:27:07.016Z,1006.22
2016-12-14T08:28:16.728Z,1006.22
2016-12-14T08:29:27.065Z,1006.19
2016-12-14T08:30:37.396Z,1006.23
2016-12-14T08:31:47.717Z,1006.19
2016-12-14T08:32:58.039Z,1006.24
2016-12-14T08:34:08.058Z,1006.18
2016-12-14T08:35:18.375Z,1006.23
2016-12-14T08:36:28.385Z,1006.23
2016-12-14T08:37:38.719Z,1006.22
2016-12-14T08:38:48.422Z,1006.24
2016-12-14T08:39:58.448Z,1006.28
2016-12-14T08:41:08.470Z,1006.27
2016-12-14T08:42:18.812Z,1006.23
2016-12-14T08:43:28.511Z,1006.28
2016-12-14T08:44:38.840Z,1006.28
2016-12-14T08:45:48.862Z,1006.31
2016-12-14T08:46:59.196Z,1006.25
2016-12-14T08:48:09.251Z,1006.27
2016-12-14T08:49:19.283Z,1006.28
2016-12-14T08:50:29.001Z,1006.35
2016-12-14T08:51:39.011Z,1006.3
2016-12-14T08:52:48.718Z,1006.36
2016-12-14T08:53:59.103Z,1006.31
2016-12-14T08:55:09.465Z,1006.31
2016-12-14T08:56:19.810Z,1006.33
2016-12-14T08:57:29.819Z,1006.36
2016-12-14T08:58:40.157Z,1006.34
2016-12-14T08:59:50.167Z,1006.32
2016-12-14T09:01:00.495Z,1006.32
2016-12-14T09:02:10.551Z,1006.33
2016-12-14T09:03:20.889Z,1006.32
2016-12-14T09:04:30.916Z,1006.33
2016-12-14T09:05:41.236Z,1006.34
2016-12-14T09:06:51.581Z,1006.36
2016-12-14T09:08:01.599Z,1006.37
2016-12-14T09:09:11.628Z,1006.39
2016-12-14T09:10:21.634Z,1006.4
2016-12-14T09:11:31.958Z,1006.38
2016-12-14T09:12:41.976Z,1006.42
2016-12-14T09:13:52.302Z,1006.41
2016-12-14T09:15:02.639Z,1006.37
2016-12-14T09:16:12.687Z,1006.38
2016-12-14T09:17:22.729Z,1006.38
2016-12-14T09:18:33.061Z,1006.4
2016-12-14T09:19:43.068Z,1006.45
2016-12-14T09:20:53.408Z,1006.42
2016-12-14T09:22:03.741Z,1006.4
2016-12-14T09:23:13.753Z,1006.44
2016-12-14T09:24:23.782Z,1006.44
2016-12-14T09:25:33.806Z,1006.42
2016-12-14T09:26:44.157Z,1006.47
2016-12-14T09:27:54.180Z,1006.42
2016-12-14T09:29:04.190Z,1006.38
2016-12-14T09:30:13.891Z,1006.35
2016-12-14T09:31:24.224Z,1006.35
2016-12-14T09:32:34.235Z,1006.32
2016-12-14T09:33:43.939Z,1006.32
2016-12-14T09:34:53.333Z,1006.31
2016-12-14T09:36:03.046Z,1006.27
2016-12-14T09:37:13.370Z,1006.26
2016-12-14T09:38:23.706Z,1006.26
2016-12-14T09:39:33.721Z,1006.3
2016-12-14T09:40:44.062Z,1006.25
2016-12-14T09:41:54.384Z,1006.33
2016-12-14T09:43:04.711Z,1006.28
2016-12-14T09:44:15.027Z,1006.32
2016-12-14T09:45:24.738Z,1006.32
2016-12-14T09:46:34.136Z,1006.3
2016-12-14T09:47:44.458Z,1006.37
2016-12-14T09:48:54.470Z,1006.31
2016-12-14T09:50:04.792Z,1006.32
2016-12-14T09:51:14.811Z,1006.35
2016-12-14T09:52:25.126Z,1006.38
2016-12-14T09:53:35.478Z,1006.33
2016-12-14T09:54:45.507Z,1006.3
2016-12-14T09:55:55.557Z,1006.33
2016-12-14T09:57:05.885Z,1006.25
2016-12-14T09:58:16.217Z,1006.26
2016-12-14T09:59:26.544Z,1006.24
2016-12-14T10:00:36.874Z,1006.23
2016-12-14T10:01:46.898Z,1006.25
2016-12-14T10:02:56.929Z,1006.27
2016-12-14T10:04:07.265Z,1006.3
2016-12-14T10:05:17.595Z,1006.3
2016-12-14T10:06:27.633Z,1006.29
2016-12-14T10:07:37.960Z,1006.34
2016-12-14T10:08:48.285Z,1006.29
2016-12-14T10:09:58.619Z,1006.3
2016-12-14T10:11:08.630Z,1006.3
2016-12-14T10:12:18.331Z,1006.28
2016-12-14T10:13:28.674Z,1006.29
2016-12-14T10:14:38.700Z,1006.25
2016-12-14T10:15:48.717Z,1006.22
2016-12-14T10:16:59.049Z,1006.17
2016-12-14T10:18:09.081Z,1006.08
2016-12-14T10:19:19.404Z,1006.09
2016-12-14T10:20:29.734Z,1006.06
2016-12-14T10:21:40.067Z,1006.04
2016-12-14T10:22:50.392Z,1006.04
2016-12-14T10:24:00.394Z,1006.02
2016-12-14T10:25:10.751Z,1006.03
2016-12-14T10:26:20.778Z,1005.98
2016-12-14T10:27:31.116Z,1005.99
2016-12-14T10:28:41.165Z,1005.99
2016-12-14T10:29:51.172Z,1005.98
2016-12-14T10:31:01.195Z,1005.97
2016-12-14T10:32:11.540Z,1005.98
2016-12-14T10:33:21.897Z,1005.97
2016-12-14T10:34:31.933Z,1005.96
2016-12-14T10:35:42.273Z,1005.91
2016-12-14T10:36:52.603Z,1005.88
2016-12-14T10:38:02.935Z,1005.9
2016-12-14T10:39:12.956Z,1005.91
2016-12-14T10:40:22.972Z,1005.88
2016-12-14T10:41:33.330Z,1005.91
2016-12-14T10:42:43.376Z,1005.85
2016-12-14T10:43:53.393Z,1005.87
2016-12-14T10:45:03.715Z,1005.86
2016-12-14T10:46:13.431Z,1005.81
2016-12-14T10:47:23.762Z,1005.77
2016-12-14T10:48:33.786Z,1005.81
2016-12-14T10:49:43.803Z,1005.82
2016-12-14T10:50:54.133Z,1005.76
2016-12-14T10:52:04.150Z,1005.74
2016-12-14T10:53:14.493Z,1005.75
2016-12-14T10:54:24.828Z,1005.72
2016-12-14T10:55:35.156Z,1005.78
2016-12-14T10:56:44.862Z,1005.77
2016-12-14T10:57:55.204Z,1005.81
2016-12-14T10:59:05.549Z,1005.83
2016-12-14T11:00:15.883Z,1005.81
2016-12-14T11:01:26.209Z,1005.78
2016-12-14T11:02:36.215Z,1005.82
2016-12-14T11:03:46.257Z,1005.82
2016-12-14T11:04:55.977Z,1005.79
2016-12-14T11:06:05.665Z,1005.77
2016-12-14T11:07:16.012Z,1005.75
2016-12-14T11:08:26.394Z,1005.75
2016-12-14T11:09:36.717Z,1005.72
2016-12-14T11:10:46.748Z,1005.71
2016-12-14T11:11:56.751Z,1005.65
2016-12-14T11:13:06.472Z,1005.65
2016-12-14T11:14:16.814Z,1005.63
2016-12-14T11:15:27.138Z,1005.64
2016-12-14T11:16:37.467Z,1005.57
2016-12-14T11:17:47.798Z,1005.57
2016-12-14T11:18:58.120Z,1005.6
2016-12-14T11:20:08.467Z,1005.59
2016-12-14T11:21:18.795Z,1005.6
2016-12-14T11:22:29.402Z,1005.53
2016-12-14T11:23:40.246Z,1005.51
2016-12-14T11:24:50.584Z,1005.51
2016-12-14T11:27:26.162Z,1005.54
2016-12-14T11:28:36.654Z,1005.58
2016-12-14T11:29:47.512Z,1005.57
2016-12-14T11:30:58.534Z,1005.6
2016-12-14T11:32:08.881Z,1005.55
2016-12-14T11:33:18.973Z,1005.58
2016-12-14T11:34:30.036Z,1005.6
2016-12-14T11:35:41.330Z,1005.58
2016-12-14T11:36:51.047Z,1005.61
2016-12-14T11:38:03.411Z,1005.63
2016-12-14T11:39:15.800Z,1005.55
2016-12-14T11:40:26.355Z,1005.54
2016-12-14T11:41:36.093Z,1005.5
2016-12-14T11:42:46.447Z,1005.47
2016-12-14T11:43:56.477Z,1005.46
2016-12-14T11:45:06.198Z,1005.39
2016-12-14T11:46:15.909Z,1005.4
2016-12-14T11:47:26.271Z,1005.4
2016-12-14T11:48:36.599Z,1005.36
2016-12-14T11:49:46.671Z,1005.39
2016-12-14T11:50:56.710Z,1005.41
2016-12-14T11:52:07.055Z,1005.47
2016-12-14T11:53:17.389Z,1005.44
2016-12-14T11:54:27.432Z,1005.44
2016-12-14T11:55:37.766Z,1005.46
2016-12-14T11:56:47.776Z,1005.49
2016-12-14T11:57:58.142Z,1005.44
2016-12-14T11:59:07.858Z,1005.47
2016-12-14T12:00:18.195Z,1005.42
2016-12-14T12:01:28.542Z,1005.42
2016-12-14T12:02:38.865Z,1005.43
2016-12-14T12:03:48.892Z,1005.43
2016-12-14T12:04:58.917Z,1005.39
2016-12-14T12:06:08.637Z,1005.37
2016-12-14T12:07:18.652Z,1005.36
2016-12-14T12:08:28.998Z,1005.39
2016-12-14T12:09:39.015Z,1005.36
2016-12-14T12:10:49.331Z,1005.39
2016-12-14T12:11:59.667Z,1005.39
2016-12-14T12:13:09.683Z,1005.33
2016-12-14T12:14:20.022Z,1005.35
2016-12-14T12:15:30.368Z,1005.33
2016-12-14T12:16:40.386Z,1005.31
2016-12-14T12:17:50.745Z,1005.32
2016-12-14T12:19:00.778Z,1005.27
2016-12-14T12:20:11.112Z,1005.31
2016-12-14T12:21:21.453Z,1005.34
2016-12-14T12:22:31.772Z,1005.32
2016-12-14T12:23:42.096Z,1005.38
2016-12-14T12:24:52.106Z,1005.39
2016-12-14T12:26:01.832Z,1005.41
2016-12-14T12:27:12.167Z,1005.46
2016-12-14T12:28:22.212Z,1005.38
2016-12-14T12:29:32.566Z,1005.38
2016-12-14T12:30:42.271Z,1005.4
2016-12-14T12:31:52.305Z,1005.35
2016-12-14T12:33:02.316Z,1005.31
2016-12-14T12:34:12.322Z,1005.34
2016-12-14T12:35:22.646Z,1005.29
2016-12-14T12:36:32.054Z,1005.26
2016-12-14T12:37:42.064Z,1005.29
2016-12-14T12:38:52.081Z,1005.25
2016-12-14T12:40:02.153Z,1005.23
2016-12-14T12:41:12.180Z,1005.23
2016-12-14T12:42:22.503Z,1005.26
2016-12-14T12:43:32.211Z,1005.29
2016-12-14T12:44:42.541Z,1005.3
2016-12-14T12:45:52.249Z,1005.26
2016-12-14T12:47:02.581Z,1005.34
2016-12-14T12:48:12.596Z,1005.38
2016-12-14T12:49:22.308Z,1005.3
2016-12-14T12:50:32.644Z,1005.24
2016-12-14T12:51:42.997Z,1005.25
2016-12-14T12:52:53.320Z,1005.23
2016-12-14T12:54:03.340Z,1005.22
2016-12-14T12:55:13.355Z,1005.22
2016-12-14T12:56:23.683Z,1005.22
2016-12-14T12:57:34.020Z,1005.24
2016-12-14T12:58:44.067Z,1005.32
2016-12-14T12:59:54.397Z,1005.36
2016-12-14T13:01:04.434Z,1005.34
2016-12-14T13:02:14.752Z,1005.36
2016-12-14T13:03:24.772Z,1005.33
2016-12-14T13:04:35.109Z,1005.3
2016-12-14T13:05:45.447Z,1005.31
2016-12-14T13:06:55.146Z,1005.27
2016-12-14T13:08:05.472Z,1005.23
2016-12-14T13:09:15.831Z,1005.23
2016-12-14T13:10:26.178Z,1005.2
2016-12-14T13:11:36.523Z,1005.16
2016-12-14T13:12:45.932Z,1005.15
2016-12-14T13:13:55.967Z,1005.22
2016-12-14T13:15:06.321Z,1005.2
2016-12-14T13:16:16.370Z,1005.21
2016-12-14T13:17:26.472Z,1005.2
2016-12-14T13:18:36.193Z,1005.17
2016-12-14T13:19:46.527Z,1005.13
2016-12-14T13:20:56.899Z,1005.1
2016-12-14T13:22:08.020Z,1005.08
2016-12-14T13:23:17.726Z,1005.12
2016-12-14T13:24:27.482Z,1005.15
2016-12-14T13:25:39.592Z,1005.19
2016-12-14T13:26:49.628Z,1005.17
2016-12-14T13:27:59.968Z,1005.23
2016-12-14T13:29:09.989Z,1005.21
2016-12-14T13:30:20.031Z,1005.24
2016-12-14T13:31:30.374Z,1005.2
2016-12-14T13:32:40.715Z,1005.15
2016-12-14T13:33:51.045Z,1005.1
2016-12-14T13:35:01.061Z,1005.12
2016-12-14T13:36:11.082Z,1005.1
2016-12-14T13:37:21.445Z,1005.08
2016-12-14T13:38:31.777Z,1005.16
2016-12-14T13:39:42.131Z,1005.08
2016-12-14T13:40:52.188Z,1005.09
2016-12-14T13:42:01.898Z,1005.11
2016-12-14T13:43:11.979Z,1005.16
2016-12-14T13:44:22.302Z,1005.21
2016-12-14T13:45:32.691Z,1005.2
2016-12-14T13:46:43.025Z,1005.25
2016-12-14T13:47:53.065Z,1005.23
2016-12-14T13:49:03.103Z,1005.27
2016-12-14T13:50:13.459Z,1005.29
2016-12-14T13:51:23.475Z,1005.32
2016-12-14T13:52:33.207Z,1005.32
2016-12-14T13:53:43.593Z,1005.34
2016-12-14T13:54:53.926Z,1005.32
2016-12-14T13:56:03.662Z,1005.29
2016-12-14T13:57:13.993Z,1005.29
2016-12-14T13:58:24.027Z,1005.28
2016-12-14T13:59:33.741Z,1005.25
2016-12-14T14:00:44.088Z,1005.29
2016-12-14T14:01:54.111Z,1005.26
2016-12-14T14:03:03.867Z,1005.32
2016-12-14T14:04:13.599Z,1005.3
2016-12-14T14:05:24.001Z,1005.27
2016-12-14T14:06:34.341Z,1005.37
2016-12-14T14:07:44.723Z,1005.33
2016-12-14T14:08:54.758Z,1005.35
2016-12-14T14:10:05.114Z,1005.31
2016-12-14T14:11:15.190Z,1005.31
2016-12-14T14:12:25.228Z,1005.31
2016-12-14T14:13:35.569Z,1005.31
2016-12-14T14:14:45.900Z,1005.3
2016-12-14T14:15:56.250Z,1005.29
2016-12-14T14:17:06.616Z,1005.29
2016-12-14T14:18:17.024Z,1005.31
2016-12-14T14:19:27.374Z,1005.33
2016-12-14T14:20:37.747Z,1005.37
2016-12-14T14:21:47.764Z,1005.37
2016-12-14T14:22:58.112Z,1005.34
2016-12-14T14:24:08.147Z,1005.36
2016-12-14T14:25:18.497Z,1005.3
2016-12-14T14:26:28.850Z,1005.25
2016-12-14T14:27:38.883Z,1005.28
2016-12-14T14:28:49.231Z,1005.29
2016-12-14T14:29:58.957Z,1005.32
2016-12-14T14:31:09.307Z,1005.34
2016-12-14T14:32:19.033Z,1005.38
2016-12-14T14:33:29.056Z,1005.41
2016-12-14T14:34:39.098Z,1005.46
2016-12-14T14:35:49.476Z,1005.44
2016-12-14T14:36:59.816Z,1005.44
2016-12-14T14:38:09.529Z,1005.39
2016-12-14T14:39:19.887Z,1005.43
2016-12-14T14:40:29.281Z,1005.43
2016-12-14T14:41:39.292Z,1005.38
2016-12-14T14:42:49.619Z,1005.41
2016-12-14T14:43:59.959Z,1005.45